createdAt,value
2023-01-31T00:00:54.110Z,3.14
2023-01-31T00:06:00.276Z,3.12
2023-01-31T00:11:06.619Z,3.05
2023-01-31T00:16:12.729Z,2.92
2023-01-31T00:21:19.360Z,2.86
2023-01-31T00:26:25.515Z,3.19
2023-01-31T00:31:32.000Z,3.02
2023-01-31T00:36:38.391Z,2.68
2023-01-31T00:42:12.464Z,2.94
2023-01-31T00:47:18.696Z,2.57
2023-01-31T00:52:25.059Z,2.90
2023-01-31T00:57:31.119Z,2.58
2023-01-31T01:02:37.375Z,2.73
2023-01-31T01:07:43.312Z,2.19
2023-01-31T01:12:49.936Z,2.19
2023-01-31T01:17:56.177Z,2.01
2023-01-31T01:23:02.370Z,2.32
2023-01-31T01:28:09.548Z,2.34
2023-01-31T01:33:16.007Z,2.54
2023-01-31T01:38:22.287Z,2.53
2023-01-31T01:43:28.750Z,2.55
2023-01-31T01:48:34.854Z,4.04
2023-01-31T01:53:41.060Z,2.84
2023-01-31T01:58:47.175Z,3.12
2023-01-31T02:03:53.676Z,3.26
2023-01-31T02:09:00.053Z,3.42
2023-01-31T02:14:06.554Z,3.02
2023-01-31T02:19:12.636Z,2.86
2023-01-31T02:24:18.904Z,2.76
2023-01-31T02:29:25.566Z,2.73
2023-01-31T02:34:30.840Z,3.39
2023-01-31T02:39:36.987Z,3.06
2023-01-31T02:44:43.093Z,2.90
2023-01-31T02:49:49.241Z,2.81
2023-01-31T02:54:55.530Z,3.01
2023-01-31T03:00:01.684Z,2.60
2023-01-31T03:05:07.950Z,3.01
2023-01-31T03:10:14.363Z,2.84
2023-01-31T03:15:20.779Z,2.95
2023-01-31T03:20:26.094Z,2.61
2023-01-31T03:25:32.753Z,2.71
2023-01-31T03:30:37.957Z,2.53
2023-01-31T03:35:44.128Z,2.58
2023-01-31T03:40:50.321Z,2.58
2023-01-31T03:45:56.779Z,2.62
2023-01-31T03:51:02.829Z,2.86
2023-01-31T03:56:09.030Z,2.50
2023-01-31T04:01:15.348Z,2.43
2023-01-31T04:06:21.443Z,2.47
2023-01-31T04:11:27.547Z,2.64
2023-01-31T04:17:42.425Z,2.56
2023-01-31T04:22:48.512Z,2.44
2023-01-31T04:27:54.721Z,2.22
2023-01-31T04:33:00.854Z,2.43
2023-01-31T04:38:07.810Z,2.67
2023-01-31T04:43:13.870Z,2.34
2023-01-31T04:48:20.069Z,2.27
2023-01-31T04:53:26.195Z,2.38
2023-01-31T04:58:32.469Z,2.42
2023-01-31T05:03:38.462Z,2.26
2023-01-31T05:08:44.618Z,2.21
2023-01-31T05:13:50.705Z,2.18
2023-01-31T05:18:56.981Z,2.76
2023-01-31T05:24:03.676Z,2.54
2023-01-31T05:29:08.761Z,2.53
2023-01-31T05:34:14.848Z,2.29
2023-01-31T05:39:21.079Z,2.45
2023-01-31T05:44:27.246Z,2.32
2023-01-31T05:49:33.881Z,2.71
2023-01-31T05:54:39.758Z,2.61
2023-01-31T05:59:45.880Z,3.08
2023-01-31T06:04:52.034Z,2.96
2023-01-31T06:09:58.930Z,3.27
2023-01-31T06:15:03.948Z,3.72
2023-01-31T06:20:10.105Z,3.00
2023-01-31T06:25:16.237Z,3.56
2023-01-31T06:30:22.488Z,3.54
2023-01-31T06:35:28.564Z,3.80
2023-01-31T06:40:34.770Z,3.80
2023-01-31T06:45:40.871Z,3.48
2023-01-31T06:50:47.078Z,3.81
2023-01-31T06:55:53.194Z,3.72
2023-01-31T07:00:59.775Z,3.98
2023-01-31T07:06:05.878Z,3.45
2023-01-31T07:11:12.128Z,3.96
2023-01-31T07:16:18.260Z,3.50
2023-01-31T07:21:24.375Z,3.48
2023-01-31T07:26:30.518Z,3.68
2023-01-31T07:31:36.649Z,3.83
2023-01-31T07:36:42.677Z,3.90
2023-01-31T07:41:49.073Z,4.32
2023-01-31T07:46:54.907Z,4.60
2023-01-31T07:52:01.049Z,4.72
2023-01-31T07:57:07.099Z,4.73
2023-01-31T08:02:13.278Z,5.09
2023-01-31T08:07:19.406Z,4.76
2023-01-31T08:12:25.745Z,5.31
2023-01-31T08:17:31.926Z,5.30
2023-01-31T08:22:38.110Z,5.59
2023-01-31T08:27:44.317Z,5.81
2023-01-31T08:32:50.509Z,5.69
2023-01-31T08:38:06.973Z,5.96
2023-01-31T08:43:02.847Z,5.75
2023-01-31T08:48:08.931Z,5.14
2023-01-31T08:53:15.110Z,5.97
2023-01-31T08:58:21.305Z,5.94
2023-01-31T09:03:27.467Z,5.36
2023-01-31T09:08:33.565Z,5.70
2023-01-31T09:14:40.409Z,6.16
2023-01-31T09:19:46.596Z,5.13
2023-01-31T09:24:52.756Z,4.94
2023-01-31T09:29:58.881Z,4.67
2023-01-31T09:35:05.072Z,4.92
2023-01-31T09:40:11.172Z,4.79
2023-01-31T09:45:17.525Z,5.22
2023-01-31T09:50:23.635Z,7.01
2023-01-31T09:55:29.812Z,5.11
2023-01-31T10:00:35.991Z,5.03
2023-01-31T10:05:42.232Z,4.40
2023-01-31T10:10:48.314Z,4.43
2023-01-31T10:15:54.621Z,3.91
2023-01-31T10:21:05.200Z,4.17
2023-01-31T10:26:10.612Z,4.19
2023-01-31T10:31:14.926Z,3.62
2023-01-31T10:36:21.105Z,3.94
2023-01-31T10:41:27.584Z,3.79
2023-01-31T10:46:32.959Z,3.77
2023-01-31T10:51:39.022Z,3.59
2023-01-31T10:56:45.202Z,3.47
2023-01-31T11:01:51.334Z,3.94
2023-01-31T11:06:57.516Z,4.11
2023-01-31T11:12:03.658Z,3.97
2023-01-31T11:17:09.857Z,3.58
2023-01-31T11:22:16.004Z,3.67
2023-01-31T11:27:22.166Z,3.40
2023-01-31T11:32:28.295Z,3.55
2023-01-31T11:37:34.951Z,3.56
2023-01-31T11:42:40.152Z,3.23
2023-01-31T11:47:46.445Z,3.02
2023-01-31T11:52:52.563Z,3.11
2023-01-31T11:57:58.829Z,3.05
2023-01-31T12:03:08.218Z,3.02
2023-01-31T12:08:10.772Z,2.55
2023-01-31T12:13:19.246Z,2.41
2023-01-31T12:18:22.455Z,2.34
2023-01-31T12:23:28.576Z,2.10
2023-01-31T12:28:34.850Z,1.99
2023-01-31T12:33:40.981Z,2.04
2023-01-31T12:38:47.187Z,1.55
2023-01-31T12:43:53.318Z,1.80
2023-01-31T12:48:59.500Z,1.66
2023-01-31T12:54:05.688Z,1.78
2023-01-31T12:59:16.335Z,1.59
2023-01-31T13:04:17.604Z,1.68
2023-01-31T13:09:23.767Z,1.67
2023-01-31T13:14:29.919Z,1.87
2023-01-31T13:19:36.090Z,1.97
2023-01-31T13:24:42.150Z,2.04
2023-01-31T13:29:48.417Z,1.81
2023-01-31T13:34:54.593Z,2.04
2023-01-31T13:40:00.837Z,2.35
2023-01-31T13:45:06.993Z,2.20
2023-01-31T13:50:13.380Z,2.54
2023-01-31T13:55:19.919Z,2.55
2023-01-31T14:00:25.353Z,2.70
2023-01-31T14:05:31.444Z,2.64
2023-01-31T14:10:37.700Z,2.78
2023-01-31T14:15:43.825Z,2.84
2023-01-31T14:20:49.932Z,3.12
2023-01-31T14:25:56.054Z,2.74
2023-01-31T14:31:02.329Z,2.66
2023-01-31T14:36:08.443Z,2.67
2023-01-31T14:41:14.663Z,2.43
2023-01-31T14:46:20.713Z,2.62
2023-01-31T14:51:26.923Z,2.83
2023-01-31T14:56:33.059Z,2.68
2023-01-31T15:01:39.208Z,2.54
2023-01-31T15:06:45.282Z,2.77
2023-01-31T15:11:51.461Z,2.53
2023-01-31T15:16:57.930Z,2.46
2023-01-31T15:22:04.200Z,2.64
2023-01-31T15:27:10.268Z,2.82
2023-01-31T15:32:16.524Z,2.74
2023-01-31T15:37:22.620Z,2.30
2023-01-31T15:42:28.805Z,2.82
2023-01-31T15:47:34.878Z,2.47
2023-01-31T15:52:41.151Z,2.33
2023-01-31T15:57:47.319Z,2.34
2023-01-31T16:02:53.601Z,2.23
2023-01-31T16:07:59.693Z,2.71
2023-01-31T16:13:05.884Z,2.15
2023-01-31T16:18:11.973Z,2.12
2023-01-31T16:23:18.221Z,2.74
2023-01-31T16:28:24.302Z,2.64
2023-01-31T16:33:30.434Z,3.12
2023-01-31T16:38:36.536Z,2.61
2023-01-31T16:43:42.861Z,2.79
2023-01-31T16:48:48.958Z,2.63
2023-01-31T16:53:55.151Z,3.83
2023-01-31T16:59:01.289Z,3.47
2023-01-31T17:04:07.507Z,3.35
2023-01-31T17:09:13.596Z,3.38
2023-01-31T17:14:19.762Z,3.49
2023-01-31T17:19:25.859Z,2.99
2023-01-31T17:24:32.176Z,3.05
2023-01-31T17:29:38.235Z,3.08
2023-01-31T17:34:44.402Z,3.48
2023-01-31T17:39:50.479Z,3.04
2023-01-31T17:44:56.685Z,3.63
2023-01-31T17:50:02.792Z,3.62
2023-01-31T17:55:08.941Z,3.83
2023-01-31T18:00:15.060Z,4.21
2023-01-31T18:05:33.482Z,3.74
2023-01-31T18:10:26.923Z,4.02
2023-01-31T18:15:33.342Z,3.48
2023-01-31T18:20:39.455Z,3.52
2023-01-31T18:25:45.640Z,3.29
2023-01-31T18:30:51.815Z,4.13
2023-01-31T18:35:58.051Z,3.54
2023-01-31T18:41:04.133Z,3.97
2023-01-31T18:46:10.415Z,4.58
2023-01-31T18:51:16.451Z,3.81
2023-01-31T18:56:22.661Z,3.52
2023-01-31T19:01:28.825Z,3.74
2023-01-31T19:06:35.044Z,3.84
2023-01-31T19:11:41.150Z,3.37
2023-01-31T19:16:47.359Z,3.94
2023-01-31T19:21:57.105Z,3.52
2023-01-31T19:27:03.425Z,3.45
2023-01-31T19:32:09.500Z,3.38
2023-01-31T19:37:15.794Z,3.80
2023-01-31T19:42:21.972Z,4.11
2023-01-31T19:47:39.740Z,3.34
2023-01-31T19:52:35.905Z,3.82
2023-01-31T19:57:42.105Z,3.82
2023-01-31T20:02:50.611Z,3.15
2023-01-31T20:07:56.767Z,4.74
2023-01-31T20:13:02.882Z,3.68
2023-01-31T20:18:09.138Z,3.03
2023-01-31T20:23:15.280Z,3.44
2023-01-31T20:28:21.834Z,3.09
2023-01-31T20:33:27.925Z,3.32
2023-01-31T20:38:34.181Z,3.00
2023-01-31T20:43:40.528Z,3.15
2023-01-31T20:48:46.782Z,3.53
2023-01-31T20:53:52.840Z,3.25
2023-01-31T20:58:59.129Z,3.77
2023-01-31T21:04:05.270Z,2.93
2023-01-31T21:09:11.473Z,3.15
2023-01-31T21:14:17.593Z,3.30
2023-01-31T21:19:23.853Z,3.21
2023-01-31T21:24:29.933Z,3.23
2023-01-31T21:29:36.187Z,3.13
2023-01-31T21:34:42.317Z,3.99
2023-01-31T21:39:48.451Z,3.26
2023-01-31T21:44:54.610Z,3.19
2023-01-31T21:50:00.845Z,3.34
2023-01-31T21:55:30.277Z,3.87
2023-01-31T22:00:36.506Z,3.50
2023-01-31T22:05:42.658Z,3.86
2023-01-31T22:10:48.898Z,3.60
2023-01-31T22:15:54.998Z,3.63
2023-01-31T22:21:01.193Z,3.30
2023-01-31T22:26:07.319Z,3.53
2023-01-31T22:31:13.644Z,3.34
2023-01-31T22:36:19.590Z,3.61
2023-01-31T22:41:25.757Z,3.61
2023-01-31T22:46:32.274Z,3.38
2023-01-31T22:51:38.379Z,3.01
2023-01-31T22:56:44.469Z,3.16
2023-01-31T23:01:50.688Z,3.62
2023-01-31T23:06:57.045Z,3.37
2023-01-31T23:12:03.328Z,3.96
2023-01-31T23:17:09.523Z,3.61
2023-01-31T23:22:16.235Z,3.86
2023-01-31T23:27:22.495Z,3.54
2023-01-31T23:32:29.108Z,3.71
2023-01-31T23:37:37.506Z,3.55
2023-01-31T23:42:43.686Z,3.46
2023-01-31T23:47:49.788Z,4.37
2023-01-31T23:52:56.119Z,4.26
2023-01-31T23:58:02.267Z,3.82
